Авиационная погода в Толмачево

СКИДКИ НА СМАРТФОНЫ!

Регион: 
Погода METAR: 
UNNT 250400Z VRB01MPS CAVOK 15/03 Q1011 R25/090070 R34/////// NOSIG RMK QFE748/0997
Время наблюдения
2022-09-25T04:00:00Z
Температура C
15.0
Точка росы
3.0
Направление ветра
0
Скорость ветра (узлы)
2
Метео видимость
6.21
Облачность
CAVOK
Нижняя граница облачности (футы)
Явления погоды
Условия полета
VFR
Аэропорт подробнее: 

Скидки на навигаторы!